This is the latest recevied weather packets stored in our database for station/object TG5ALY-16. If no packets are shown the sender has not sent any weather packets the latest 10 day(s).
| Time | Temp. | Humidity | Pressure | Rain* | Wind** | Luminosity | Snow |
|---|---|---|---|---|---|---|---|
| 1777737981 | 20.56° C | 44% | 1016 hPa | 0 mm | - | - | - |
| 1777737381 | 20.56° C | 48% | 1016 hPa | 0 mm | - | - | - |
| 1777736780 | 20° C | 49% | 1016 hPa | 0 mm | - | - | - |
| 1777736179 | 18.89° C | 55% | 1016 hPa | 0 mm | - | - | - |
| 1777735578 | 18.89° C | 55% | 1016 hPa | 0 mm | - | - | - |
| 1777734978 | 17.78° C | 60% | 1016 hPa | 0 mm | - | - | - |
| 1777734377 | 14.44° C | 63% | 1016 hPa | 0 mm | - | - | - |
| 1777733776 | 14.44° C | 63% | 1016 hPa | 0 mm | - | - | - |
| 1777733176 | 14.44° C | 63% | 1016 hPa | 0 mm | - | - | - |
| 1777732575 | 15° C | 69% | 1016 hPa | 0 mm | - | - | - |
| 1777731974 | 15° C | 67% | 1016 hPa | 0 mm | - | - | - |
| 1777731373 | 15° C | 63% | 1016 hPa | 0 mm | - | - | - |
| 1777730773 | 14.44° C | 63% | 1016 hPa | 0 mm | - | - | - |
| 1777730172 | 8.33° C | 10% | - | 0 mm | - | - | - |
| 1777729571 | 8.33° C | 10% | - | 0 mm | - | - | - |
| 1777728971 | 11.67° C | 79% | 1017 hPa | 0 mm | - | - | - |
| 1777728370 | 11.67° C | 79% | 1017 hPa | 0 mm | - | - | - |
| 1777727769 | 11.11° C | 79% | 1017 hPa | 0 mm | - | - | - |
| 1777727169 | 11.11° C | 79% | 1017 hPa | 0 mm | - | - | - |
| 1777726568 | 8.33° C | 10% | - | 0 mm | - | - | - |
| 1777725367 | 8.89° C | 88% | 1017 hPa | 0 mm | - | - | - |
| 1777724766 | 8.89° C | 90% | 1017 hPa | 0 mm | - | - | - |
| 1777724165 | 9.44° C | 89% | 1017 hPa | 0 mm | - | - | - |
| 1777723565 | 9.44° C | 88% | 1017 hPa | 0 mm | - | - | - |
| 1777721763 | 8.33° C | 88% | 1017 hPa | 0 mm | - | - | - |
* Rain latest hour (hover to see other rain measurements)
** Current wind speed in m/s (hover to see current wind gust speed)